Flight Track Log - Related Links

Times and Time Zones

All times are in EDT time to prevent confusion due to time zone crossing. See the UAL1636 flight status page for this flight to view local times or setup timezone preferences in your user account.

Time Position Orientation Groundspeed Altitude Reporting Facility
EDT Latitude Longitude Course Direction KTS MPH feet Rate Location/Type
Tue 07:33:27 AM 28.4400 -81.3220 360° North 160 184 200  Level FlightAware ADS-B
Tue 07:33:57 AM 28.4590 -81.3220 360° North 147 169 1,500 2,500 Climbing FlightAware ADS-B
Tue 07:34:27 AM 28.4840 -81.3230 358° North 164 189 2,700 1,886 Climbing FlightAware ADS-B
Tue 07:35:07 AM 28.5200 -81.3220 North 214 246 3,700 1,714 Climbing FlightAware ADS-B
Tue 07:35:37 AM 28.5540 -81.3290 350° North 262 302 4,700 2,250 Climbing FlightAware ADS-B
Tue 07:35:47 AM 28.5630 -81.3390 316° Northwest 260 299 5,200 3,120 Climbing FlightAware ADS-B
Tue 07:36:02 AM 28.5710 -81.3590 294° West 267 307 6,000 2,933 Climbing FlightAware ADS-B
Tue 07:36:32 AM 28.5660 -81.4000 262° West 279 321 7,400 3,055 Climbing FlightAware ADS-B
Tue 07:36:57 AM 28.5560 -81.4370 253° West 286 329 8,800 2,743 Climbing FlightAware ADS-B
Tue 07:37:42 AM 28.5380 -81.5030 253° West 313 360 10,600 2,047 Climbing FlightAware ADS-B
Tue 07:38:22 AM 28.5200 -81.5700 253° West 351 404 11,700 2,471 Climbing FlightAware ADS-B
Tue 07:39:07 AM 28.4960 -81.6510 251° West 356 410 14,100 3,086 Climbing FlightAware ADS-B
Tue 07:39:32 AM 28.4870 -81.6970 257° West 358 412 15,300 2,677 Climbing FlightAware ADS-B
Tue 07:40:12 AM 28.4900 -81.7720 273° West 364 419 17,000 2,682 Climbing FlightAware ADS-B
Tue 07:40:57 AM 28.4930 -81.8590 272° West 365 420 19,100 2,541 Climbing FlightAware ADS-B
Tue 07:41:37 AM 28.4960 -81.9350 273° West 373 429 20,600 2,047 Climbing FlightAware ADS-B
Tue 07:42:22 AM 28.5000 -82.0240 273° West 386 444 22,000 1,976 Climbing FlightAware ADS-B
Tue 07:43:02 AM 28.5030 -82.1080 272° West 391 450 23,400 1,906 Climbing FlightAware ADS-B
Tue 07:43:47 AM 28.5070 -82.2000 273° West 399 459 24,700 1,906 Climbing FlightAware ADS-B
Tue 07:44:27 AM 28.5090 -82.2840 272° West 401 461 26,100 2,100 Climbing FlightAware ADS-B
Tue 07:45:07 AM 28.5130 -82.3690 273° West 392 451 27,500 2,073 Climbing FlightAware ADS-B
Tue 07:45:22 AM 28.5240 -82.3950 296° West 384 442 28,000 2,200 Climbing FlightAware ADS-B
Tue 07:45:37 AM 28.5430 -82.4180 313° West 382 440 28,600 2,200 Climbing FlightAware ADS-B
Tue 07:45:52 AM 28.5680 -82.4340 331° Northwest 385 443 29,100 1,527 Climbing FlightAware ADS-B
Tue 07:46:32 AM 28.6280 -82.4690 333° Northwest 382 440 30,000 675 Climbing FlightAware ADS-B
Tue 07:47:12 AM 28.6910 -82.5070 332° Northwest 381 438 30,000  Level FlightAware ADS-B
Tue 07:47:57 AM 28.7620 -82.5490 333° Northwest 379 436 30,000  Level FlightAware ADS-B
Tue 07:48:37 AM 28.8250 -82.5860 333° Northwest 381 438 30,000  Level FlightAware ADS-B
Tue 07:49:17 AM 28.8830 -82.6210 332° Northwest 400 460 30,000  Level FlightAware ADS-B
Tue 07:50:02 AM 28.9590 -82.6660 333° Northwest 403 464 30,000  Level FlightAware ADS-B
Tue 07:50:47 AM 29.0350 -82.7110 333° Northwest 403 464 30,000  Level FlightAware ADS-B
Tue 07:51:22 AM 29.0920 -82.7450 332° Northwest 403 464 30,000  Level FlightAware ADS-B
Tue 07:52:12 AM 29.1800 -82.7980 332° Northwest 402 463 30,000  Level FlightAware ADS-B
Tue 07:52:52 AM 29.2420 -82.8350 332° Northwest 402 463 30,000  Level FlightAware ADS-B
Tue 07:53:32 AM 29.2980 -82.8690 332° Northwest 402 463 30,000  Level FlightAware ADS-B
Tue 07:54:12 AM 29.3540 -82.9030 332° Northwest 402 463 30,000  Level FlightAware ADS-B
Tue 07:54:52 AM 29.4100 -82.9370 332° Northwest 402 463 30,000  Level FlightAware ADS-B
Tue 07:55:42 AM 29.4790 -82.9800 332° Northwest 402 463 30,000  Level FlightAware ADS-B
Tue 07:56:22 AM 29.5350 -83.0140 332° Northwest 402 463 30,000  Level FlightAware ADS-B
Tue 07:57:02 AM 29.5910 -83.0480 332° Northwest 402 463 30,000  Level FlightAware ADS-B
Tue 07:58:02 AM 29.7600 -83.1230 339° North 396 456 30,000  Level FlightAware ADS-B
Tue 07:58:42 AM 29.8330 -83.1570 338° Northwest 403 464 30,000  Level FlightAware ADS-B
Tue 07:59:37 AM 29.9230 -83.2000 338° Northwest 403 464 30,000  Level FlightAware ADS-B
Tue 08:00:17 AM 29.9810 -83.2290 337° Northwest 403 464 30,000  Level FlightAware ADS-B
Tue 08:01:07 AM 30.0810 -83.2740 339° North 402 463 30,000  Level FlightAware ADS-B
Tue 08:01:57 AM 30.1530 -83.3100 337° Northwest 402 463 30,000  Level FlightAware ADS-B
Tue 08:02:37 AM 30.2120 -83.3380 338° Northwest 402 463 30,000  Level FlightAware ADS-B
Tue 08:03:17 AM 30.2700 -83.3670 337° Northwest 402 463 30,000  Level FlightAware ADS-B
Tue 08:04:07 AM 30.3430 -83.4030 337° Northwest 402 463 30,000  Level FlightAware ADS-B
Tue 08:04:37 AM 30.3860 -83.4240 337° Northwest 402 463 30,000  Level FlightAware ADS-B
Tue 08:05:27 AM 30.4590 -83.4600 337° Northwest 402 463 30,000  Level FlightAware ADS-B
Tue 08:06:07 AM 30.5170 -83.4880 337° Northwest 402 463 30,000  Level FlightAware ADS-B
Tue 08:06:47 AM 30.5750 -83.5170 337° Northwest 402 463 30,000  Level FlightAware ADS-B
Tue 08:07:27 AM 30.6340 -83.5460 337° Northwest 402 463 30,000  Level FlightAware ADS-B
Tue 08:08:17 AM 30.7060 -83.5820 337° Northwest 402 463 30,000  Level FlightAware ADS-B
Tue 08:08:57 AM 30.7650 -83.6100 338° Northwest 402 463 30,000  Level FlightAware ADS-B
Tue 08:09:57 AM 30.9970 -83.7060 340° North 404 465 30,000  Level FlightAware ADS-B
Tue 08:11:12 AM 31.0550 -83.7350 337° Northwest 404 465 30,000  Level FlightAware ADS-B
Tue 08:12:02 AM 31.1280 -83.7710 337° Northwest 404 465 30,000  Level FlightAware ADS-B
Tue 08:12:32 AM 31.1720 -83.7930 337° Northwest 404 465 30,000  Level FlightAware ADS-B
Tue 08:13:22 AM 31.2450 -83.8290 337° Northwest 404 465 30,000  Level FlightAware ADS-B
Tue 08:14:02 AM 31.3040 -83.8580 337° Northwest 404 465 30,000  Level FlightAware ADS-B
Tue 08:14:42 AM 31.3620 -83.8870 337° Northwest 404 465 30,000  Level FlightAware ADS-B
Tue 08:15:32 AM 31.4350 -83.9240 337° Northwest 404 465 30,000  Level FlightAware ADS-B
Tue 08:16:12 AM 31.4940 -83.9530 337° Northwest 404 465 30,000  Level FlightAware ADS-B
Tue 08:16:52 AM 31.5520 -83.9820 337° Northwest 404 465 30,000  Level FlightAware ADS-B
Tue 08:17:32 AM 31.6110 -84.0110 337° Northwest 404 465 30,000  Level FlightAware ADS-B
Tue 08:18:12 AM 31.6690 -84.0400 337° Northwest 404 465 30,000  Level FlightAware ADS-B
Tue 08:19:02 AM 31.7430 -84.0770 337° Northwest 404 465 30,000  Level FlightAware ADS-B
Tue 08:19:42 AM 31.8010 -84.1060 337° Northwest 404 465 30,000  Level FlightAware ADS-B
Tue 08:20:17 AM 32.0953 -84.0878 337° Northwest 399 459 30,000  Level Atlanta Center
Tue 08:21:17 AM 32.2058 -84.1125 349° North 399 459 30,000  Level Atlanta Center
Tue 08:26:52 AM 32.8300 -84.2510 349° North 408 470 30,000  Level FlightAware ADS-B
Tue 08:29:32 AM 33.1370 -84.3220 349° North 410 472 30,000  Level FlightAware ADS-B
Tue 08:30:12 AM 33.2120 -84.3390 349° North 410 472 30,000  Level FlightAware ADS-B
Tue 08:30:52 AM 33.2860 -84.3560 349° North 410 472 30,000  Level FlightAware ADS-B
Tue 08:31:32 AM 33.3610 -84.3730 349° North 407 468 30,000  Level FlightAware ADS-B
Tue 08:32:17 AM 33.4400 -84.3910 349° North 395 455 30,000  Level FlightAware ADS-B
Tue 08:32:57 AM 33.5160 -84.4090 349° North 394 453 30,000  Level FlightAware ADS-B
Tue 08:33:42 AM 33.5950 -84.4270 349° North 391 450 30,000  Level FlightAware ADS-B
Tue 08:34:22 AM 33.6700 -84.4450 349° North 397 457 30,000  Level FlightAware ADS-B
Tue 08:35:02 AM 33.7400 -84.4620 349° North 396 456 30,000  Level FlightAware ADS-B
Tue 08:35:47 AM 33.8210 -84.4820 348° North 397 457 30,000  Level FlightAware ADS-B
Tue 08:36:15 AM 33.8793 -84.4958 349° North 398 458 30,000  Level FlightAware ADS-B
Tue 08:36:48 AM 33.9384 -84.5102 349° North 397 457 30,000  Level FlightAware ADS-B
Tue 08:37:18 AM 33.9928 -84.5233 349° North 397 457 30,000  Level FlightAware ADS-B
Tue 08:37:49 AM 34.0480 -84.5367 349° North 396 456 30,000  Level FlightAware ADS-B
Tue 08:38:19 AM 34.1032 -84.5502 349° North 396 456 30,000  Level FlightAware ADS-B
Tue 08:38:50 AM 34.1578 -84.5635 349° North 396 456 30,000  Level FlightAware ADS-B
Tue 08:39:49 AM 34.2646 -84.5896 349° North 397 457 30,000  Level FlightAware ADS-B
Tue 08:40:20 AM 34.3206 -84.5975 353° North 403 464 30,000  Level FlightAware ADS-B
Tue 08:40:50 AM 34.3767 -84.6023 356° North 403 464 30,000  Level FlightAware ADS-B
Tue 08:41:20 AM 34.4334 -84.6072 356° North 403 464 30,000  Level FlightAware ADS-B
Tue 08:41:53 AM 34.4939 -84.6122 356° North 403 464 30,000  Level FlightAware ADS-B
Tue 08:42:25 AM 34.5536 -84.6173 356° North 403 464 30,000  Level FlightAware ADS-B
Tue 08:42:57 AM 34.6129 -84.6223 356° North 403 464 30,000  Level FlightAware ADS-B
Tue 08:43:29 AM 34.6740 -84.6275 356° North 403 464 30,000  Level FlightAware ADS-B
Tue 08:44:03 AM 34.7363 -84.6328 356° North 403 464 30,000  Level FlightAware ADS-B
Tue 08:44:33 AM 34.7930 -84.6378 356° North 402 463 30,000  Level FlightAware ADS-B
Tue 08:45:03 AM 34.8487 -84.6425 356° North 402 463 30,000  Level FlightAware ADS-B
Tue 08:45:38 AM 34.9122 -84.6479 356° North 402 463 30,000  Level FlightAware ADS-B
Tue 08:46:11 AM 34.9748 -84.6533 356° North 401 461 30,000  Level FlightAware ADS-B
Tue 08:47:09 AM 35.0811 -84.6625 356° North 401 461 30,000  Level FlightAware ADS-B
Tue 08:47:39 AM 35.1367 -84.6673 356° North 400 460 30,000  Level FlightAware ADS-B
Tue 08:48:09 AM 35.1927 -84.6721 356° North 399 459 30,000  Level FlightAware ADS-B
Tue 08:48:39 AM 35.2480 -84.6770 356° North 399 459 30,000  Level FlightAware ADS-B
Tue 08:49:09 AM 35.3036 -84.6817 356° North 400 460 30,000  Level FlightAware ADS-B
Tue 08:49:39 AM 35.3589 -84.6866 356° North 399 459 30,000  Level FlightAware ADS-B
Tue 08:50:10 AM 35.4148 -84.6914 356° North 398 458 30,000  Level FlightAware ADS-B
Tue 08:50:41 AM 35.4714 -84.6965 356° North 397 457 30,000  Level FlightAware ADS-B
Tue 08:51:11 AM 35.5270 -84.7013 356° North 398 458 30,000  Level FlightAware ADS-B
Tue 08:51:46 AM 35.5906 -84.7068 356° North 398 458 30,000  Level FlightAware ADS-B
Tue 08:52:16 AM 35.6464 -84.7116 356° North 398 458 30,000  Level FlightAware ADS-B
Tue 08:52:46 AM 35.7028 -84.7167 356° North 399 459 30,000  Level FlightAware ADS-B
Tue 08:53:18 AM 35.7599 -84.7218 356° North 400 460 30,000  Level FlightAware ADS-B
Tue 08:53:49 AM 35.8185 -84.7269 356° North 401 461 30,000  Level FlightAware ADS-B
Tue 08:54:20 AM 35.8747 -84.7318 356° North 401 461 30,000  Level FlightAware ADS-B
Tue 08:54:50 AM 35.9306 -84.7367 356° North 401 461 30,000  Level FlightAware ADS-B
Tue 08:55:23 AM 35.9917 -84.7422 356° North 402 463 30,000  Level FlightAware ADS-B
Tue 08:55:53 AM 36.0487 -84.7471 356° North 404 465 30,000  Level FlightAware ADS-B
Tue 08:56:23 AM 36.1050 -84.7522 356° North 404 465 30,000  Level FlightAware ADS-B
Tue 08:56:54 AM 36.1620 -84.7573 356° North 405 466 30,000  Level FlightAware ADS-B
Tue 08:57:24 AM 36.2187 -84.7623 356° North 406 467 30,000  Level FlightAware ADS-B
Tue 08:57:54 AM 36.2753 -84.7672 356° North 406 467 30,000  Level FlightAware ADS-B
Tue 08:58:37 AM 36.3553 -84.7743 356° North 407 468 30,000  Level FlightAware ADS-B
Tue 08:59:09 AM 36.4171 -84.7768 358° North 407 468 30,000  Level FlightAware ADS-B
Tue 08:59:44 AM 36.4834 -84.7627 10° North 427 491 30,000  Level FlightAware ADS-B
Tue 09:00:17 AM 36.5474 -84.7439 13° North 425 489 30,000  Level FlightAware ADS-B
Tue 09:00:49 AM 36.6078 -84.7260 13° North 424 488 30,000  Level FlightAware ADS-B
Tue 09:01:29 AM 36.6842 -84.7032 13° North 423 487 30,000  Level FlightAware ADS-B
Tue 09:02:06 AM 36.7538 -84.6826 13° North 423 487 30,000  Level FlightAware ADS-B
Tue 09:02:48 AM 36.8341 -84.6589 13° North 423 487 30,000  Level FlightAware ADS-B
Tue 09:03:11 AM 36.8784 -84.6502 North 414 476 30,000  Level FlightAware ADS-B
Tue 09:03:27 AM 36.9085 -84.6492 North 407 468 30,000  Level FlightAware ADS-B
Tue 09:03:57 AM 36.9654 -84.6516 358° North 407 468 30,000  Level FlightAware ADS-B
Tue 09:04:28 AM 37.0231 -84.6541 358° North 408 470 30,000  Level FlightAware ADS-B
Tue 09:04:59 AM 37.0807 -84.6568 358° North 408 470 30,000  Level FlightAware ADS-B
Tue 09:05:36 AM 37.1522 -84.6599 358° North 409 471 30,000  Level FlightAware ADS-B
Tue 09:06:06 AM 37.2090 -84.6623 358° North 410 472 30,000  Level FlightAware ADS-B
Tue 09:06:37 AM 37.2678 -84.6648 358° North 410 472 30,000  Level FlightAware ADS-B
Tue 09:07:07 AM 37.3251 -84.6673 358° North 410 472 30,000  Level FlightAware ADS-B
Tue 09:07:47 AM 37.3980 -84.6710 358° North 410 472 30,000  Level FlightAware ADS-B
Tue 09:08:27 AM 37.4740 -84.6740 358° North 410 472 30,000  Level FlightAware ADS-B
Tue 09:09:12 AM 37.5510 -84.6770 358° North 411 473 30,000  Level FlightAware ADS-B
Tue 09:09:54 AM 37.6420 -84.6810 358° North 410 472 30,000  Level FlightAware ADS-B
Tue 09:10:28 AM 37.7058 -84.6839 358° North 408 470 30,000  Level FlightAware ADS-B
Tue 09:11:17 AM 37.7930 -84.6880 358° North 406 467 30,000  Level FlightAware ADS-B
Tue 09:12:02 AM 37.8810 -84.6920 358° North 405 466 30,000  Level FlightAware ADS-B
Tue 09:12:42 AM 37.9550 -84.6950 358° North 403 464 30,000  Level FlightAware ADS-B
Tue 09:13:22 AM 38.0290 -84.6980 358° North 401 461 30,000  Level FlightAware ADS-B
Tue 09:14:02 AM 38.1030 -84.7010 358° North 399 459 30,000  Level FlightAware ADS-B
Tue 09:14:47 AM 38.1810 -84.7050 358° North 398 458 30,000  Level FlightAware ADS-B
Tue 09:15:32 AM 38.2690 -84.7090 358° North 398 458 30,000  Level FlightAware ADS-B
Tue 09:16:07 AM 38.3320 -84.7110 359° North 398 458 30,000  Level FlightAware ADS-B
Tue 09:16:52 AM 38.4170 -84.7150 358° North 398 458 30,000  Level FlightAware ADS-B
Tue 09:17:32 AM 38.4890 -84.7270 353° North 387 445 30,000  Level FlightAware ADS-B
Tue 09:18:17 AM 38.5620 -84.7600 341° North 384 442 30,000  Level FlightAware ADS-B
Tue 09:18:57 AM 38.6290 -84.7910 340° North 395 455 30,000  Level FlightAware ADS-B
Tue 09:19:42 AM 38.7080 -84.8270 340° North 396 456 30,000  Level FlightAware ADS-B
Tue 09:20:22 AM 38.7730 -84.8580 340° North 396 456 30,000  Level FlightAware ADS-B
Tue 09:21:02 AM 38.8430 -84.8900 340° North 396 456 30,000  Level FlightAware ADS-B
Tue 09:21:47 AM 38.9250 -84.9280 340° North 393 452 30,000  Level FlightAware ADS-B
Tue 09:22:22 AM 38.9790 -84.9540 339° North 394 453 30,000  Level FlightAware ADS-B
Tue 09:23:07 AM 39.0510 -84.9870 340° North 394 453 30,000 -800 Level FlightAware ADS-B
Tue 09:23:52 AM 39.1370 -85.0280 340° North 398 458 28,800 -918 Descending FlightAware ADS-B
Tue 09:24:32 AM 39.1990 -85.0580 339° North 402 463 28,700 -75 Descending FlightAware ADS-B
Tue 09:25:12 AM 39.2580 -85.0880 339° North 402 463 28,700 -467 Level FlightAware ADS-B
Tue 09:26:02 AM 39.3600 -85.1330 341° North 395 455 28,000 -467 Descending FlightAware ADS-B
Tue 09:26:42 AM 39.4250 -85.1650 339° North 395 455 28,000  Level FlightAware ADS-B
Tue 09:27:27 AM 39.5090 -85.2040 340° North 394 453 28,000  Level FlightAware ADS-B
Tue 09:28:07 AM 39.5720 -85.2350 339° North 394 453 28,000  Level FlightAware ADS-B
Tue 09:28:37 AM 39.6290 -85.2610 341° North 394 453 28,000  Level FlightAware ADS-B
Tue 09:29:32 AM 39.7240 -85.3070 340° North 394 453 28,000 -442 Level FlightAware ADS-B
Tue 09:30:12 AM 39.7920 -85.3390 340° North 394 453 27,300 -975 Descending FlightAware ADS-B
Tue 09:30:52 AM 39.8570 -85.3700 340° North 393 452 26,700 -1,020 Descending FlightAware ADS-B
Tue 09:31:52 AM 39.9600 -85.4200 340° North 394 453 25,600 -1,074 Descending FlightAware ADS-B
Tue 09:32:27 AM 40.0230 -85.4500 340° North 390 449 25,000 -960 Descending FlightAware ADS-B
Tue 09:33:07 AM 40.0890 -85.4820 340° North 390 449 24,400 -571 Descending FlightAware ADS-B
Tue 09:34:12 AM 40.1920 -85.5330 339° North 387 445 24,000 -267 Descending FlightAware ADS-B
Tue 09:34:37 AM 40.2320 -85.5720 323° Northwest 376 433 24,000  Level FlightAware ADS-B
Tue 09:35:22 AM 40.2840 -85.6440 313° West 360 414 24,000  Level FlightAware ADS-B
Tue 09:36:02 AM 40.3290 -85.7080 313° West 358 412 24,000  Level FlightAware ADS-B
Tue 09:36:42 AM 40.3740 -85.7700 314° West 357 411 24,000  Level FlightAware ADS-B
Tue 09:37:27 AM 40.4180 -85.8350 312° West 357 411 24,000 -847 Level FlightAware ADS-B
Tue 09:38:07 AM 40.4710 -85.9070 314° West 364 419 22,800 -1,425 Descending FlightAware ADS-B
Tue 09:38:47 AM 40.5150 -85.9680 314° West 365 420 22,100 -525 Descending FlightAware ADS-B
Tue 09:39:27 AM 40.5540 -86.0240 313° West 365 420 22,100 -2,800 Level FlightAware ADS-B
Tue 09:40:17 AM 40.6210 -86.1190 313° West 358 412 17,900 -3,400 Descending FlightAware ADS-B
Tue 09:40:57 AM 40.6640 -86.1800 313° West 344 396 17,000 -1,500 Descending FlightAware ADS-B
Tue 09:41:37 AM 40.7070 -86.2410 313° West 338 389 15,900 -776 Descending FlightAware ADS-B
Tue 09:42:22 AM 40.7530 -86.3070 313° West 339 390 15,900  Level FlightAware ADS-B
Tue 09:43:12 AM 40.8050 -86.3830 312° West 341 392 15,900 -189 Level FlightAware ADS-B
Tue 09:43:57 AM 40.8560 -86.4550 313° West 346 398 15,600 -600 Descending FlightAware ADS-B
Tue 09:44:32 AM 40.8940 -86.5100 312° West 360 414 15,100 -988 Descending FlightAware ADS-B
Tue 09:45:22 AM 40.9520 -86.5930 313° West 358 412 14,200 -1,067 Descending FlightAware ADS-B
Tue 09:46:02 AM 40.9970 -86.6570 313° West 356 410 13,500 -988 Descending FlightAware ADS-B
Tue 09:46:47 AM 41.0450 -86.7270 312° West 354 407 12,800 -988 Descending FlightAware ADS-B
Tue 09:47:27 AM 41.0910 -86.7940 312° West 353 406 12,100 -975 Descending FlightAware ADS-B
Tue 09:48:07 AM 41.1340 -86.8560 313° West 351 404 11,500 -847 Descending FlightAware ADS-B
Tue 09:48:52 AM 41.1830 -86.9280 312° West 348 400 10,900 -424 Descending FlightAware ADS-B
Tue 09:49:32 AM 41.2260 -86.9910 312° West 345 397 10,900  Level FlightAware ADS-B
Tue 09:50:17 AM 41.2760 -87.0630 313° West 347 399 10,900  Level FlightAware ADS-B
Tue 09:50:57 AM 41.3170 -87.1230 312° West 347 399 10,900  Level FlightAware ADS-B
Tue 09:51:37 AM 41.3590 -87.1850 312° West 346 398 10,900  Level FlightAware ADS-B
Tue 09:52:22 AM 41.4140 -87.2520 318° Northwest 348 400 10,900  Level FlightAware ADS-B
Tue 09:53:02 AM 41.4620 -87.3090 318° Northwest 349 402 10,900  Level FlightAware ADS-B
Tue 09:53:42 AM 41.5120 -87.3690 318° Northwest 349 402 10,900  Level FlightAware ADS-B
Tue 09:54:27 AM 41.5690 -87.4310 321° Northwest 351 404 10,900  Level FlightAware ADS-B
Tue 09:55:07 AM 41.6180 -87.4850 321° Northwest 352 405 10,900  Level FlightAware ADS-B
Tue 09:55:52 AM 41.6740 -87.5470 320° Northwest 350 403 10,900  Level FlightAware ADS-B
Tue 09:56:32 AM 41.7240 -87.6040 320° Northwest 349 402 10,900  Level FlightAware ADS-B
Tue 09:57:17 AM 41.7780 -87.6650 320° Northwest 347 399 10,900 -141 Level FlightAware ADS-B
Tue 09:57:57 AM 41.8250 -87.7180 320° Northwest 306 352 10,700 -675 Descending FlightAware ADS-B
Tue 09:58:37 AM 41.8600 -87.7730 311° West 281 323 10,000 -1,200 Descending FlightAware ADS-B
Tue 09:59:07 AM 41.8810 -87.8170 303° West 277 319 9,300 -1,309 Descending FlightAware ADS-B
Tue 09:59:32 AM 41.8980 -87.8510 304° West 272 313 8,800 -1,200 Descending FlightAware ADS-B
Tue 09:59:47 AM 41.9070 -87.8710 301° West 269 310 8,500 -1,067 Descending FlightAware ADS-B
Tue 10:00:17 AM 41.9290 -87.9150 304° West 265 305 8,000 -800 Descending FlightAware ADS-B
Tue 10:00:47 AM 41.9480 -87.9550 303° West 247 284 7,700 -436 Descending FlightAware ADS-B
Tue 10:01:12 AM 41.9630 -87.9840 305° West 234 269 7,600 -545 Descending FlightAware ADS-B
Tue 10:01:42 AM 41.9810 -88.0200 304° West 224 258 7,200 -764 Descending FlightAware ADS-B
Tue 10:02:07 AM 41.9950 -88.0470 305° West 216 249 6,900 -1,091 Descending FlightAware ADS-B
Tue 10:02:37 AM 42.0130 -88.0830 304° West 218 251 6,200 -1,500 Descending FlightAware ADS-B
Tue 10:03:07 AM 42.0330 -88.1150 310° West 229 264 5,400 -1,500 Descending FlightAware ADS-B
Tue 10:03:17 AM 42.0400 -88.1220 323° Northwest 229 264 5,200 -1,350 Descending FlightAware ADS-B
Tue 10:03:47 AM 42.0690 -88.1430 332° Northwest 242 278 4,500 -1,400 Descending FlightAware ADS-B
Tue 10:04:17 AM 42.0980 -88.1290 20° North 247 284 3,800 -1,080 Descending FlightAware ADS-B
Tue 10:04:37 AM 42.1120 -88.1080 48° Northeast 230 265 3,600 -514 Descending FlightAware ADS-B
Tue 10:04:52 AM 42.1160 -88.0870 76° East 210 242 3,500 -857 Descending FlightAware ADS-B
Tue 10:05:12 AM 42.1060 -88.0640 120° Southeast 191 220 3,100 -667 Descending FlightAware ADS-B
Tue 10:05:37 AM 42.0900 -88.0460 140° Southeast 191 220 3,000 -545 Descending FlightAware ADS-B
Tue 10:06:07 AM 42.0680 -88.0210 140° Southeast 195 224 2,600 -800 Descending FlightAware ADS-B
Tue 10:06:22 AM 42.0580 -88.0100 141° Southeast 192 221 2,400 -900 Descending FlightAware ADS-B
Tue 10:06:47 AM 42.0430 -87.9920 138° Southeast 178 205 2,000 -900 Descending FlightAware ADS-B
Tue 10:07:02 AM 42.0330 -87.9810 141° Southeast 165 190 1,800 -800 Descending FlightAware ADS-B
Tue 10:07:32 AM 42.0180 -87.9650 142° Southeast 149 171 1,400 -764 Descending FlightAware ADS-B
Tue 10:07:57 AM 42.0050 -87.9490 138° Southeast 147 169 1,100 -900 Descending FlightAware ADS-B
Tue 10:08:12 AM 41.9960 -87.9390 140° Southeast 148 170 800 -1,200 Descending FlightAware ADS-B

Login

Don't have an account? Register now (free) for customized features, flight alerts, and more!